sensor_id;sensor_type;location;lat;lon;timestamp;P1;durP1;ratioP1;P2;durP2;ratioP2
26906;SDS011;14472;56.880;16.658;2023-05-14T00:02:07;6.40;;;4.03;;
26906;SDS011;14472;56.880;16.658;2023-05-14T00:04:33;6.23;;;3.60;;
26906;SDS011;14472;56.880;16.658;2023-05-14T00:06:59;6.00;;;3.70;;
26906;SDS011;14472;56.880;16.658;2023-05-14T00:09:25;5.17;;;3.50;;
26906;SDS011;14472;56.880;16.658;2023-05-14T00:11:51;5.17;;;4.07;;
26906;SDS011;14472;56.880;16.658;2023-05-14T00:14:16;5.70;;;3.83;;
26906;SDS011;14472;56.880;16.658;2023-05-14T00:16:42;6.17;;;3.93;;
26906;SDS011;14472;56.880;16.658;2023-05-14T00:19:08;4.57;;;3.70;;
26906;SDS011;14472;56.880;16.658;2023-05-14T00:21:34;5.80;;;3.53;;
26906;SDS011;14472;56.880;16.658;2023-05-14T00:23:59;6.70;;;4.10;;
26906;SDS011;14472;56.880;16.658;2023-05-14T00:26:25;11.37;;;3.87;;
26906;SDS011;14472;56.880;16.658;2023-05-14T00:28:51;4.03;;;3.63;;
26906;SDS011;14472;56.880;16.658;2023-05-14T00:31:16;5.60;;;3.80;;
26906;SDS011;14472;56.880;16.658;2023-05-14T00:33:42;5.17;;;3.73;;
26906;SDS011;14472;56.880;16.658;2023-05-14T00:36:08;4.17;;;3.70;;
26906;SDS011;14472;56.880;16.658;2023-05-14T00:38:34;6.23;;;3.87;;
26906;SDS011;14472;56.880;16.658;2023-05-14T00:40:59;8.93;;;4.03;;
26906;SDS011;14472;56.880;16.658;2023-05-14T00:43:25;5.37;;;4.37;;
26906;SDS011;14472;56.880;16.658;2023-05-14T00:45:52;6.00;;;4.00;;
26906;SDS011;14472;56.880;16.658;2023-05-14T00:48:19;5.37;;;3.90;;
26906;SDS011;14472;56.880;16.658;2023-05-14T00:50:45;4.47;;;4.07;;
26906;SDS011;14472;56.880;16.658;2023-05-14T00:53:13;4.60;;;3.87;;
26906;SDS011;14472;56.880;16.658;2023-05-14T00:55:39;5.13;;;4.00;;
26906;SDS011;14472;56.880;16.658;2023-05-14T00:58:06;5.47;;;4.00;;
26906;SDS011;14472;56.880;16.658;2023-05-14T01:00:35;4.17;;;3.73;;
26906;SDS011;14472;56.880;16.658;2023-05-14T01:03:05;4.30;;;3.77;;
26906;SDS011;14472;56.880;16.658;2023-05-14T01:08:35;6.90;;;4.10;;
26906;SDS011;14472;56.880;16.658;2023-05-14T01:11:28;4.23;;;3.73;;
26906;SDS011;14472;56.880;16.658;2023-05-14T01:14:00;8.27;;;3.83;;
26906;SDS011;14472;56.880;16.658;2023-05-14T01:16:37;5.37;;;3.90;;
26906;SDS011;14472;56.880;16.658;2023-05-14T01:19:04;4.67;;;3.60;;
26906;SDS011;14472;56.880;16.658;2023-05-14T01:21:35;5.70;;;4.10;;
26906;SDS011;14472;56.880;16.658;2023-05-14T01:24:02;8.00;;;4.70;;
26906;SDS011;14472;56.880;16.658;2023-05-14T01:26:31;5.80;;;4.57;;
26906;SDS011;14472;56.880;16.658;2023-05-14T01:29:18;8.10;;;4.27;;
26906;SDS011;14472;56.880;16.658;2023-05-14T01:31:46;6.27;;;4.80;;
26906;SDS011;14472;56.880;16.658;2023-05-14T01:34:14;5.03;;;4.50;;
26906;SDS011;14472;56.880;16.658;2023-05-14T01:36:42;5.10;;;4.13;;
26906;SDS011;14472;56.880;16.658;2023-05-14T01:39:08;5.13;;;4.20;;
26906;SDS011;14472;56.880;16.658;2023-05-14T01:41:36;5.93;;;3.97;;
26906;SDS011;14472;56.880;16.658;2023-05-14T01:44:03;7.33;;;4.30;;
26906;SDS011;14472;56.880;16.658;2023-05-14T01:46:30;5.47;;;4.33;;
26906;SDS011;14472;56.880;16.658;2023-05-14T01:48:56;7.17;;;4.23;;
26906;SDS011;14472;56.880;16.658;2023-05-14T01:51:22;6.43;;;4.53;;
26906;SDS011;14472;56.880;16.658;2023-05-14T01:53:48;5.27;;;4.77;;
26906;SDS011;14472;56.880;16.658;2023-05-14T01:56:14;5.93;;;4.33;;
26906;SDS011;14472;56.880;16.658;2023-05-14T01:58:39;5.87;;;4.70;;
26906;SDS011;14472;56.880;16.658;2023-05-14T02:01:05;6.50;;;4.00;;
26906;SDS011;14472;56.880;16.658;2023-05-14T02:03:31;6.60;;;4.40;;
26906;SDS011;14472;56.880;16.658;2023-05-14T02:05:57;7.40;;;4.20;;
26906;SDS011;14472;56.880;16.658;2023-05-14T02:08:22;6.73;;;4.57;;
26906;SDS011;14472;56.880;16.658;2023-05-14T02:10:48;5.13;;;4.50;;
26906;SDS011;14472;56.880;16.658;2023-05-14T02:13:14;5.13;;;4.23;;
26906;SDS011;14472;56.880;16.658;2023-05-14T02:15:40;6.17;;;4.40;;
26906;SDS011;14472;56.880;16.658;2023-05-14T02:18:06;5.23;;;4.10;;
26906;SDS011;14472;56.880;16.658;2023-05-14T02:20:32;5.20;;;4.07;;
26906;SDS011;14472;56.880;16.658;2023-05-14T02:22:57;5.13;;;4.40;;
26906;SDS011;14472;56.880;16.658;2023-05-14T02:25:23;5.90;;;3.87;;
26906;SDS011;14472;56.880;16.658;2023-05-14T02:27:49;9.40;;;3.90;;
26906;SDS011;14472;56.880;16.658;2023-05-14T02:30:15;5.50;;;4.23;;
26906;SDS011;14472;56.880;16.658;2023-05-14T02:32:40;5.57;;;4.20;;
26906;SDS011;14472;56.880;16.658;2023-05-14T02:35:06;7.17;;;3.87;;
26906;SDS011;14472;56.880;16.658;2023-05-14T02:37:32;4.33;;;3.90;;
26906;SDS011;14472;56.880;16.658;2023-05-14T02:40:01;4.50;;;4.10;;
26906;SDS011;14472;56.880;16.658;2023-05-14T02:42:28;4.90;;;3.93;;
26906;SDS011;14472;56.880;16.658;2023-05-14T02:44:54;4.67;;;3.47;;
26906;SDS011;14472;56.880;16.658;2023-05-14T02:47:19;5.97;;;4.10;;
26906;SDS011;14472;56.880;16.658;2023-05-14T02:49:45;5.83;;;4.37;;
26906;SDS011;14472;56.880;16.658;2023-05-14T02:52:11;4.37;;;3.93;;
26906;SDS011;14472;56.880;16.658;2023-05-14T02:54:37;6.10;;;4.10;;
26906;SDS011;14472;56.880;16.658;2023-05-14T02:57:02;7.10;;;4.10;;
26906;SDS011;14472;56.880;16.658;2023-05-14T02:59:28;5.70;;;3.47;;
26906;SDS011;14472;56.880;16.658;2023-05-14T03:01:55;5.23;;;4.10;;
26906;SDS011;14472;56.880;16.658;2023-05-14T03:04:22;6.80;;;4.93;;
26906;SDS011;14472;56.880;16.658;2023-05-14T03:06:47;6.00;;;4.30;;
26906;SDS011;14472;56.880;16.658;2023-05-14T03:09:13;5.13;;;3.80;;
26906;SDS011;14472;56.880;16.658;2023-05-14T03:11:39;4.27;;;3.77;;
26906;SDS011;14472;56.880;16.658;2023-05-14T03:14:05;5.37;;;4.20;;
26906;SDS011;14472;56.880;16.658;2023-05-14T03:16:30;5.93;;;4.17;;
26906;SDS011;14472;56.880;16.658;2023-05-14T03:18:56;4.83;;;4.03;;
26906;SDS011;14472;56.880;16.658;2023-05-14T03:21:22;4.37;;;3.77;;
26906;SDS011;14472;56.880;16.658;2023-05-14T03:23:48;5.37;;;4.23;;
26906;SDS011;14472;56.880;16.658;2023-05-14T03:26:13;4.80;;;4.17;;
26906;SDS011;14472;56.880;16.658;2023-05-14T03:28:39;5.47;;;4.10;;
26906;SDS011;14472;56.880;16.658;2023-05-14T03:31:05;5.73;;;3.93;;
26906;SDS011;14472;56.880;16.658;2023-05-14T03:33:31;5.33;;;4.47;;
26906;SDS011;14472;56.880;16.658;2023-05-14T03:35:56;5.80;;;4.27;;
26906;SDS011;14472;56.880;16.658;2023-05-14T03:38:22;5.47;;;4.17;;
26906;SDS011;14472;56.880;16.658;2023-05-14T03:40:48;4.67;;;4.10;;
26906;SDS011;14472;56.880;16.658;2023-05-14T03:43:14;4.23;;;3.83;;
26906;SDS011;14472;56.880;16.658;2023-05-14T03:45:40;5.03;;;3.97;;
26906;SDS011;14472;56.880;16.658;2023-05-14T03:48:06;5.30;;;4.40;;
26906;SDS011;14472;56.880;16.658;2023-05-14T03:50:32;5.47;;;4.10;;
26906;SDS011;14472;56.880;16.658;2023-05-14T03:52:57;5.20;;;4.50;;
26906;SDS011;14472;56.880;16.658;2023-05-14T03:55:23;5.40;;;4.70;;
26906;SDS011;14472;56.880;16.658;2023-05-14T03:57:49;7.17;;;4.70;;
26906;SDS011;14472;56.880;16.658;2023-05-14T04:00:14;8.27;;;4.63;;
26906;SDS011;14472;56.880;16.658;2023-05-14T04:02:40;8.23;;;4.33;;
26906;SDS011;14472;56.880;16.658;2023-05-14T04:05:06;5.73;;;5.00;;
26906;SDS011;14472;56.880;16.658;2023-05-14T04:07:32;5.83;;;4.80;;
26906;SDS011;14472;56.880;16.658;2023-05-14T04:09:58;10.10;;;5.13;;
26906;SDS011;14472;56.880;16.658;2023-05-14T04:12:24;8.33;;;4.73;;
26906;SDS011;14472;56.880;16.658;2023-05-14T04:14:50;7.40;;;5.00;;
26906;SDS011;14472;56.880;16.658;2023-05-14T04:17:16;5.33;;;4.83;;
26906;SDS011;14472;56.880;16.658;2023-05-14T04:19:42;12.37;;;5.30;;
26906;SDS011;14472;56.880;16.658;2023-05-14T04:22:08;7.37;;;4.80;;
26906;SDS011;14472;56.880;16.658;2023-05-14T04:24:34;8.73;;;4.93;;
26906;SDS011;14472;56.880;16.658;2023-05-14T04:26:59;6.43;;;4.40;;
26906;SDS011;14472;56.880;16.658;2023-05-14T04:29:25;7.67;;;4.37;;
26906;SDS011;14472;56.880;16.658;2023-05-14T04:31:51;8.13;;;4.70;;
26906;SDS011;14472;56.880;16.658;2023-05-14T04:34:17;4.63;;;4.20;;
26906;SDS011;14472;56.880;16.658;2023-05-14T04:36:43;7.03;;;4.40;;
26906;SDS011;14472;56.880;16.658;2023-05-14T04:39:09;10.73;;;4.30;;
26906;SDS011;14472;56.880;16.658;2023-05-14T04:41:36;8.80;;;4.40;;
26906;SDS011;14472;56.880;16.658;2023-05-14T04:44:02;6.40;;;4.40;;
26906;SDS011;14472;56.880;16.658;2023-05-14T04:46:28;6.53;;;4.33;;
26906;SDS011;14472;56.880;16.658;2023-05-14T04:48:54;4.87;;;4.10;;
26906;SDS011;14472;56.880;16.658;2023-05-14T04:51:20;6.50;;;4.00;;
26906;SDS011;14472;56.880;16.658;2023-05-14T04:53:46;11.47;;;4.00;;
26906;SDS011;14472;56.880;16.658;2023-05-14T04:56:12;4.47;;;3.63;;
26906;SDS011;14472;56.880;16.658;2023-05-14T04:58:38;6.07;;;3.97;;
26906;SDS011;14472;56.880;16.658;2023-05-14T05:01:04;3.57;;;3.27;;
26906;SDS011;14472;56.880;16.658;2023-05-14T05:03:30;6.47;;;3.40;;
26906;SDS011;14472;56.880;16.658;2023-05-14T05:05:56;6.47;;;3.40;;
26906;SDS011;14472;56.880;16.658;2023-05-14T05:08:22;5.20;;;3.57;;
26906;SDS011;14472;56.880;16.658;2023-05-14T05:10:48;5.47;;;3.70;;
26906;SDS011;14472;56.880;16.658;2023-05-14T05:13:13;4.17;;;3.40;;
26906;SDS011;14472;56.880;16.658;2023-05-14T05:15:41;11.07;;;3.70;;
26906;SDS011;14472;56.880;16.658;2023-05-14T05:18:07;7.70;;;3.97;;
26906;SDS011;14472;56.880;16.658;2023-05-14T05:20:33;7.10;;;3.73;;
26906;SDS011;14472;56.880;16.658;2023-05-14T05:22:59;4.97;;;3.80;;
26906;SDS011;14472;56.880;16.658;2023-05-14T05:25:25;4.23;;;3.67;;
26906;SDS011;14472;56.880;16.658;2023-05-14T05:27:51;4.37;;;3.97;;
26906;SDS011;14472;56.880;16.658;2023-05-14T05:30:17;6.73;;;3.70;;
26906;SDS011;14472;56.880;16.658;2023-05-14T05:32:43;5.63;;;3.50;;
26906;SDS011;14472;56.880;16.658;2023-05-14T05:35:09;4.60;;;3.40;;
26906;SDS011;14472;56.880;16.658;2023-05-14T05:37:35;4.63;;;3.47;;
26906;SDS011;14472;56.880;16.658;2023-05-14T05:40:00;4.40;;;3.97;;
26906;SDS011;14472;56.880;16.658;2023-05-14T05:42:28;5.07;;;3.53;;
26906;SDS011;14472;56.880;16.658;2023-05-14T05:44:54;7.30;;;3.67;;
26906;SDS011;14472;56.880;16.658;2023-05-14T05:47:20;5.97;;;3.77;;
26906;SDS011;14472;56.880;16.658;2023-05-14T05:49:46;5.57;;;4.23;;
26906;SDS011;14472;56.880;16.658;2023-05-14T05:52:11;4.37;;;3.97;;
26906;SDS011;14472;56.880;16.658;2023-05-14T05:54:37;5.43;;;3.70;;
26906;SDS011;14472;56.880;16.658;2023-05-14T05:57:04;3.83;;;3.43;;
26906;SDS011;14472;56.880;16.658;2023-05-14T05:59:30;6.23;;;3.80;;
26906;SDS011;14472;56.880;16.658;2023-05-14T06:01:55;5.03;;;4.03;;
26906;SDS011;14472;56.880;16.658;2023-05-14T06:04:21;6.70;;;4.20;;
26906;SDS011;14472;56.880;16.658;2023-05-14T06:06:47;4.50;;;3.90;;
26906;SDS011;14472;56.880;16.658;2023-05-14T06:09:13;4.20;;;3.80;;
26906;SDS011;14472;56.880;16.658;2023-05-14T06:11:38;6.03;;;3.97;;
26906;SDS011;14472;56.880;16.658;2023-05-14T06:14:04;5.87;;;4.27;;
26906;SDS011;14472;56.880;16.658;2023-05-14T06:16:30;6.07;;;3.97;;
26906;SDS011;14472;56.880;16.658;2023-05-14T06:18:55;4.27;;;3.47;;
26906;SDS011;14472;56.880;16.658;2023-05-14T06:21:21;4.90;;;4.40;;
26906;SDS011;14472;56.880;16.658;2023-05-14T06:23:47;7.43;;;4.07;;
26906;SDS011;14472;56.880;16.658;2023-05-14T06:26:13;6.80;;;4.17;;
26906;SDS011;14472;56.880;16.658;2023-05-14T06:28:38;5.13;;;3.90;;
26906;SDS011;14472;56.880;16.658;2023-05-14T06:31:04;4.77;;;3.97;;
26906;SDS011;14472;56.880;16.658;2023-05-14T06:33:30;4.60;;;3.87;;
26906;SDS011;14472;56.880;16.658;2023-05-14T06:35:59;4.47;;;3.93;;
26906;SDS011;14472;56.880;16.658;2023-05-14T06:38:27;3.77;;;3.30;;
26906;SDS011;14472;56.880;16.658;2023-05-14T06:40:53;4.53;;;3.47;;
26906;SDS011;14472;56.880;16.658;2023-05-14T06:43:19;7.97;;;3.80;;
26906;SDS011;14472;56.880;16.658;2023-05-14T06:45:49;3.17;;;2.87;;
26906;SDS011;14472;56.880;16.658;2023-05-14T06:48:15;4.73;;;3.13;;
26906;SDS011;14472;56.880;16.658;2023-05-14T06:50:43;7.00;;;3.10;;
26906;SDS011;14472;56.880;16.658;2023-05-14T06:53:09;7.40;;;3.10;;
26906;SDS011;14472;56.880;16.658;2023-05-14T06:55:35;6.80;;;3.27;;
26906;SDS011;14472;56.880;16.658;2023-05-14T06:58:01;3.73;;;2.90;;
26906;SDS011;14472;56.880;16.658;2023-05-14T07:00:26;4.97;;;3.27;;
26906;SDS011;14472;56.880;16.658;2023-05-14T07:02:52;11.88;;;3.28;;
26906;SDS011;14472;56.880;16.658;2023-05-14T07:05:18;7.20;;;3.73;;
26906;SDS011;14472;56.880;16.658;2023-05-14T07:07:44;3.73;;;3.13;;
26906;SDS011;14472;56.880;16.658;2023-05-14T07:10:10;6.15;;;3.58;;
26906;SDS011;14472;56.880;16.658;2023-05-14T07:12:36;4.70;;;3.10;;
26906;SDS011;14472;56.880;16.658;2023-05-14T07:15:02;8.93;;;3.25;;
26906;SDS011;14472;56.880;16.658;2023-05-14T07:17:28;4.43;;;3.03;;
26906;SDS011;14472;56.880;16.658;2023-05-14T07:19:54;4.57;;;3.17;;
26906;SDS011;14472;56.880;16.658;2023-05-14T07:22:20;4.90;;;3.20;;
26906;SDS011;14472;56.880;16.658;2023-05-14T07:24:46;7.38;;;2.97;;
26906;SDS011;14472;56.880;16.658;2023-05-14T07:27:11;8.25;;;3.45;;
26906;SDS011;14472;56.880;16.658;2023-05-14T07:29:37;6.30;;;3.08;;
26906;SDS011;14472;56.880;16.658;2023-05-14T07:32:03;3.35;;;3.00;;
26906;SDS011;14472;56.880;16.658;2023-05-14T07:34:29;7.00;;;2.95;;
26906;SDS011;14472;56.880;16.658;2023-05-14T07:36:55;8.07;;;3.35;;
26906;SDS011;14472;56.880;16.658;2023-05-14T07:39:21;4.13;;;3.15;;
26906;SDS011;14472;56.880;16.658;2023-05-14T07:41:47;5.18;;;3.00;;
26906;SDS011;14472;56.880;16.658;2023-05-14T07:44:14;4.80;;;3.22;;
26906;SDS011;14472;56.880;16.658;2023-05-14T07:46:39;5.60;;;3.30;;
26906;SDS011;14472;56.880;16.658;2023-05-14T07:49:06;4.18;;;3.25;;
26906;SDS011;14472;56.880;16.658;2023-05-14T07:51:32;5.75;;;3.33;;
26906;SDS011;14472;56.880;16.658;2023-05-14T07:53:58;5.38;;;3.30;;
26906;SDS011;14472;56.880;16.658;2023-05-14T07:56:23;4.82;;;3.15;;
26906;SDS011;14472;56.880;16.658;2023-05-14T07:58:49;3.80;;;2.90;;
26906;SDS011;14472;56.880;16.658;2023-05-14T08:01:15;5.15;;;3.10;;
26906;SDS011;14472;56.880;16.658;2023-05-14T08:03:41;4.47;;;3.10;;
26906;SDS011;14472;56.880;16.658;2023-05-14T08:06:07;7.50;;;3.88;;
26906;SDS011;14472;56.880;16.658;2023-05-14T08:08:33;4.30;;;3.30;;
26906;SDS011;14472;56.880;16.658;2023-05-14T08:10:59;4.40;;;3.42;;
26906;SDS011;14472;56.880;16.658;2023-05-14T08:13:26;5.07;;;3.42;;
26906;SDS011;14472;56.880;16.658;2023-05-14T08:15:51;9.32;;;3.55;;
26906;SDS011;14472;56.880;16.658;2023-05-14T08:18:17;5.45;;;3.20;;
26906;SDS011;14472;56.880;16.658;2023-05-14T08:20:43;6.40;;;3.00;;
26906;SDS011;14472;56.880;16.658;2023-05-14T08:23:08;8.07;;;3.58;;
26906;SDS011;14472;56.880;16.658;2023-05-14T08:25:34;7.22;;;3.60;;
26906;SDS011;14472;56.880;16.658;2023-05-14T08:28:00;5.18;;;3.25;;
26906;SDS011;14472;56.880;16.658;2023-05-14T08:30:26;6.10;;;3.15;;
26906;SDS011;14472;56.880;16.658;2023-05-14T08:32:52;6.40;;;2.90;;
26906;SDS011;14472;56.880;16.658;2023-05-14T08:35:18;3.33;;;3.03;;
26906;SDS011;14472;56.880;16.658;2023-05-14T08:37:44;4.93;;;3.13;;
26906;SDS011;14472;56.880;16.658;2023-05-14T08:40:10;5.28;;;2.90;;
26906;SDS011;14472;56.880;16.658;2023-05-14T08:42:39;8.45;;;3.25;;
26906;SDS011;14472;56.880;16.658;2023-05-14T08:45:06;5.72;;;3.08;;
26906;SDS011;14472;56.880;16.658;2023-05-14T08:47:34;4.93;;;3.08;;
26906;SDS011;14472;56.880;16.658;2023-05-14T08:50:02;6.30;;;2.83;;
26906;SDS011;14472;56.880;16.658;2023-05-14T08:52:29;3.83;;;2.97;;
26906;SDS011;14472;56.880;16.658;2023-05-14T08:54:59;10.25;;;3.67;;
26906;SDS011;14472;56.880;16.658;2023-05-14T08:57:27;7.88;;;2.75;;
26906;SDS011;14472;56.880;16.658;2023-05-14T08:59:56;4.50;;;3.47;;
26906;SDS011;14472;56.880;16.658;2023-05-14T09:02:23;4.72;;;3.33;;
26906;SDS011;14472;56.880;16.658;2023-05-14T09:04:58;9.30;;;3.47;;
26906;SDS011;14472;56.880;16.658;2023-05-14T09:07:25;3.80;;;3.33;;
26906;SDS011;14472;56.880;16.658;2023-05-14T09:09:51;7.38;;;3.30;;
26906;SDS011;14472;56.880;16.658;2023-05-14T09:12:18;6.03;;;3.22;;
26906;SDS011;14472;56.880;16.658;2023-05-14T09:14:44;7.85;;;3.20;;
26906;SDS011;14472;56.880;16.658;2023-05-14T09:17:11;4.75;;;3.00;;
26906;SDS011;14472;56.880;16.658;2023-05-14T09:19:40;4.88;;;2.90;;
26906;SDS011;14472;56.880;16.658;2023-05-14T09:22:08;6.07;;;2.65;;
26906;SDS011;14472;56.880;16.658;2023-05-14T09:24:36;7.57;;;2.90;;
26906;SDS011;14472;56.880;16.658;2023-05-14T09:27:06;5.35;;;2.78;;
26906;SDS011;14472;56.880;16.658;2023-05-14T09:29:39;8.38;;;3.00;;
26906;SDS011;14472;56.880;16.658;2023-05-14T09:32:05;3.28;;;2.97;;
26906;SDS011;14472;56.880;16.658;2023-05-14T09:34:32;5.35;;;3.20;;
26906;SDS011;14472;56.880;16.658;2023-05-14T09:37:02;7.50;;;3.33;;
26906;SDS011;14472;56.880;16.658;2023-05-14T09:39:29;5.57;;;3.03;;
26906;SDS011;14472;56.880;16.658;2023-05-14T09:41:56;5.10;;;3.03;;
26906;SDS011;14472;56.880;16.658;2023-05-14T09:44:22;6.82;;;2.78;;
26906;SDS011;14472;56.880;16.658;2023-05-14T09:46:48;6.38;;;3.13;;
26906;SDS011;14472;56.880;16.658;2023-05-14T09:49:15;5.43;;;2.85;;
26906;SDS011;14472;56.880;16.658;2023-05-14T09:51:41;3.13;;;2.70;;
26906;SDS011;14472;56.880;16.658;2023-05-14T09:54:07;6.93;;;2.85;;
26906;SDS011;14472;56.880;16.658;2023-05-14T09:56:33;6.20;;;2.60;;
26906;SDS011;14472;56.880;16.658;2023-05-14T09:59:00;6.22;;;3.00;;
26906;SDS011;14472;56.880;16.658;2023-05-14T10:01:29;6.03;;;3.38;;
26906;SDS011;14472;56.880;16.658;2023-05-14T10:03:57;5.03;;;3.17;;
26906;SDS011;14472;56.880;16.658;2023-05-14T10:06:27;8.85;;;3.10;;
26906;SDS011;14472;56.880;16.658;2023-05-14T10:08:56;4.60;;;3.03;;
26906;SDS011;14472;56.880;16.658;2023-05-14T10:11:27;10.43;;;3.20;;
26906;SDS011;14472;56.880;16.658;2023-05-14T10:16:34;6.75;;;3.45;;
26906;SDS011;14472;56.880;16.658;2023-05-14T10:22:30;6.18;;;3.17;;
26906;SDS011;14472;56.880;16.658;2023-05-14T10:24:59;7.28;;;3.00;;
26906;SDS011;14472;56.880;16.658;2023-05-14T10:27:26;5.00;;;3.00;;
26906;SDS011;14472;56.880;16.658;2023-05-14T10:29:52;8.88;;;3.40;;
26906;SDS011;14472;56.880;16.658;2023-05-14T10:32:22;6.05;;;3.80;;
26906;SDS011;14472;56.880;16.658;2023-05-14T10:34:51;6.80;;;3.13;;
26906;SDS011;14472;56.880;16.658;2023-05-14T10:37:18;8.27;;;3.78;;
26906;SDS011;14472;56.880;16.658;2023-05-14T10:42:22;7.80;;;3.70;;
26906;SDS011;14472;56.880;16.658;2023-05-14T10:47:24;5.95;;;3.65;;
26906;SDS011;14472;56.880;16.658;2023-05-14T10:49:52;5.20;;;3.53;;
26906;SDS011;14472;56.880;16.658;2023-05-14T10:52:19;9.68;;;3.70;;
26906;SDS011;14472;56.880;16.658;2023-05-14T10:57:19;5.93;;;3.55;;
26906;SDS011;14472;56.880;16.658;2023-05-14T10:59:47;6.05;;;3.67;;
26906;SDS011;14472;56.880;16.658;2023-05-14T11:02:17;8.25;;;3.85;;
26906;SDS011;14472;56.880;16.658;2023-05-14T11:05:04;4.13;;;3.55;;
26906;SDS011;14472;56.880;16.658;2023-05-14T11:10:03;5.63;;;3.25;;
26906;SDS011;14472;56.880;16.658;2023-05-14T11:12:32;7.78;;;3.50;;
26906;SDS011;14472;56.880;16.658;2023-05-14T11:14:59;9.88;;;3.60;;
26906;SDS011;14472;56.880;16.658;2023-05-14T11:17:28;4.72;;;3.20;;
26906;SDS011;14472;56.880;16.658;2023-05-14T11:19:55;5.00;;;3.30;;
26906;SDS011;14472;56.880;16.658;2023-05-14T11:22:22;5.93;;;3.63;;
26906;SDS011;14472;56.880;16.658;2023-05-14T11:24:48;3.45;;;3.15;;
26906;SDS011;14472;56.880;16.658;2023-05-14T11:27:15;5.18;;;3.47;;
26906;SDS011;14472;56.880;16.658;2023-05-14T11:29:42;6.70;;;3.53;;
26906;SDS011;14472;56.880;16.658;2023-05-14T11:32:10;7.53;;;3.90;;
26906;SDS011;14472;56.880;16.658;2023-05-14T11:34:36;6.05;;;3.63;;
26906;SDS011;14472;56.880;16.658;2023-05-14T11:37:02;7.53;;;3.92;;
26906;SDS011;14472;56.880;16.658;2023-05-14T11:39:32;8.30;;;3.58;;
26906;SDS011;14472;56.880;16.658;2023-05-14T11:42:03;7.72;;;3.90;;
26906;SDS011;14472;56.880;16.658;2023-05-14T11:44:33;5.00;;;3.95;;
26906;SDS011;14472;56.880;16.658;2023-05-14T11:46:59;7.07;;;3.78;;
26906;SDS011;14472;56.880;16.658;2023-05-14T11:49:26;5.63;;;3.80;;
26906;SDS011;14472;56.880;16.658;2023-05-14T11:52:01;7.90;;;3.80;;
26906;SDS011;14472;56.880;16.658;2023-05-14T11:54:30;6.80;;;3.92;;
26906;SDS011;14472;56.880;16.658;2023-05-14T11:56:58;7.40;;;3.95;;
26906;SDS011;14472;56.880;16.658;2023-05-14T11:59:26;12.57;;;4.05;;
26906;SDS011;14472;56.880;16.658;2023-05-14T12:01:53;5.72;;;3.78;;
26906;SDS011;14472;56.880;16.658;2023-05-14T12:04:20;5.72;;;3.85;;
26906;SDS011;14472;56.880;16.658;2023-05-14T12:06:50;7.28;;;3.85;;
26906;SDS011;14472;56.880;16.658;2023-05-14T12:09:17;7.82;;;4.00;;
26906;SDS011;14472;56.880;16.658;2023-05-14T12:11:44;6.85;;;3.78;;
26906;SDS011;14472;56.880;16.658;2023-05-14T12:14:15;10.18;;;3.95;;
26906;SDS011;14472;56.880;16.658;2023-05-14T12:16:44;7.07;;;3.80;;
26906;SDS011;14472;56.880;16.658;2023-05-14T12:19:15;6.60;;;3.72;;
26906;SDS011;14472;56.880;16.658;2023-05-14T12:21:42;46.15;;;5.68;;
26906;SDS011;14472;56.880;16.658;2023-05-14T12:24:10;6.70;;;3.50;;
26906;SDS011;14472;56.880;16.658;2023-05-14T12:26:45;9.50;;;3.70;;
26906;SDS011;14472;56.880;16.658;2023-05-14T12:29:13;6.45;;;3.13;;
26906;SDS011;14472;56.880;16.658;2023-05-14T12:31:46;15.68;;;3.47;;
26906;SDS011;14472;56.880;16.658;2023-05-14T12:34:13;6.38;;;3.22;;
26906;SDS011;14472;56.880;16.658;2023-05-14T12:36:40;43.85;;;5.22;;
26906;SDS011;14472;56.880;16.658;2023-05-14T12:39:07;6.63;;;3.47;;
26906;SDS011;14472;56.880;16.658;2023-05-14T12:41:37;6.75;;;3.17;;
26906;SDS011;14472;56.880;16.658;2023-05-14T12:44:04;8.00;;;3.40;;
26906;SDS011;14472;56.880;16.658;2023-05-14T12:46:29;8.57;;;3.30;;
26906;SDS011;14472;56.880;16.658;2023-05-14T12:48:56;11.27;;;3.58;;
26906;SDS011;14472;56.880;16.658;2023-05-14T12:51:22;7.95;;;3.83;;
26906;SDS011;14472;56.880;16.658;2023-05-14T12:53:48;7.80;;;3.10;;
26906;SDS011;14472;56.880;16.658;2023-05-14T12:56:15;6.30;;;3.40;;
26906;SDS011;14472;56.880;16.658;2023-05-14T12:58:41;10.48;;;3.60;;
26906;SDS011;14472;56.880;16.658;2023-05-14T13:01:07;11.32;;;3.50;;
26906;SDS011;14472;56.880;16.658;2023-05-14T13:03:32;9.00;;;3.42;;
26906;SDS011;14472;56.880;16.658;2023-05-14T13:05:58;12.32;;;3.75;;
26906;SDS011;14472;56.880;16.658;2023-05-14T13:08:24;6.90;;;3.47;;
26906;SDS011;14472;56.880;16.658;2023-05-14T13:10:53;12.90;;;3.50;;
26906;SDS011;14472;56.880;16.658;2023-05-14T13:13:19;6.60;;;3.40;;
26906;SDS011;14472;56.880;16.658;2023-05-14T13:15:45;7.78;;;3.80;;
26906;SDS011;14472;56.880;16.658;2023-05-14T13:18:15;6.95;;;3.60;;
26906;SDS011;14472;56.880;16.658;2023-05-14T13:20:41;7.05;;;3.70;;
26906;SDS011;14472;56.880;16.658;2023-05-14T13:23:07;7.88;;;3.55;;
26906;SDS011;14472;56.880;16.658;2023-05-14T13:25:33;8.45;;;3.53;;
26906;SDS011;14472;56.880;16.658;2023-05-14T13:27:59;5.90;;;3.40;;
26906;SDS011;14472;56.880;16.658;2023-05-14T13:30:25;8.52;;;3.35;;
26906;SDS011;14472;56.880;16.658;2023-05-14T13:32:50;7.65;;;3.63;;
26906;SDS011;14472;56.880;16.658;2023-05-14T13:35:16;8.35;;;3.63;;
26906;SDS011;14472;56.880;16.658;2023-05-14T13:37:42;7.43;;;3.72;;
26906;SDS011;14472;56.880;16.658;2023-05-14T13:40:08;6.47;;;3.50;;
26906;SDS011;14472;56.880;16.658;2023-05-14T13:42:35;9.00;;;3.90;;
26906;SDS011;14472;56.880;16.658;2023-05-14T13:45:01;7.07;;;3.40;;
26906;SDS011;14472;56.880;16.658;2023-05-14T13:47:28;8.43;;;3.83;;
26906;SDS011;14472;56.880;16.658;2023-05-14T13:49:54;6.47;;;3.45;;
26906;SDS011;14472;56.880;16.658;2023-05-14T13:52:20;4.22;;;3.28;;
26906;SDS011;14472;56.880;16.658;2023-05-14T13:54:46;4.63;;;3.42;;
26906;SDS011;14472;56.880;16.658;2023-05-14T13:57:12;8.30;;;3.83;;
26906;SDS011;14472;56.880;16.658;2023-05-14T13:59:39;5.43;;;3.50;;
26906;SDS011;14472;56.880;16.658;2023-05-14T14:02:05;10.90;;;3.63;;
26906;SDS011;14472;56.880;16.658;2023-05-14T14:04:31;8.10;;;3.50;;
26906;SDS011;14472;56.880;16.658;2023-05-14T14:06:57;11.57;;;3.67;;
26906;SDS011;14472;56.880;16.658;2023-05-14T14:09:23;6.60;;;3.70;;
26906;SDS011;14472;56.880;16.658;2023-05-14T14:11:49;9.27;;;3.53;;
26906;SDS011;14472;56.880;16.658;2023-05-14T14:14:15;7.53;;;3.22;;
26906;SDS011;14472;56.880;16.658;2023-05-14T14:16:41;9.00;;;3.80;;
26906;SDS011;14472;56.880;16.658;2023-05-14T14:19:07;10.40;;;3.90;;
26906;SDS011;14472;56.880;16.658;2023-05-14T14:21:33;12.07;;;3.67;;
26906;SDS011;14472;56.880;16.658;2023-05-14T14:24:00;8.35;;;3.67;;
26906;SDS011;14472;56.880;16.658;2023-05-14T14:26:26;5.38;;;3.70;;
26906;SDS011;14472;56.880;16.658;2023-05-14T14:28:53;13.77;;;3.65;;
26906;SDS011;14472;56.880;16.658;2023-05-14T14:31:19;14.05;;;3.63;;
26906;SDS011;14472;56.880;16.658;2023-05-14T14:33:45;12.65;;;3.88;;
26906;SDS011;14472;56.880;16.658;2023-05-14T14:36:11;28.83;;;4.18;;
26906;SDS011;14472;56.880;16.658;2023-05-14T14:38:36;9.55;;;3.58;;
26906;SDS011;14472;56.880;16.658;2023-05-14T14:41:03;8.35;;;3.58;;
26906;SDS011;14472;56.880;16.658;2023-05-14T14:43:31;8.30;;;3.85;;
26906;SDS011;14472;56.880;16.658;2023-05-14T14:45:58;11.27;;;3.53;;
26906;SDS011;14472;56.880;16.658;2023-05-14T14:48:28;6.20;;;3.30;;
26906;SDS011;14472;56.880;16.658;2023-05-14T14:50:58;9.52;;;3.75;;